Foosland, IL (61845)

2:38 AM CST on February 06, 2016 (GMT -0600)
Fisher Elmwood Drive | | Change Station
CLOSE
Current Station
Personal Weather Station
Location: Fisher, IL
Elevation: 722 ft
Nearby Weather Stations

Elev 722 ft 40.32 °N, 88.35 °W | Updated 51 seconds ago

Partly Cloudy
Partly Cloudy
20.4 °F
Feels Like 20 °F
N
1.1
Wind Variable Wind from SSE

Today
High -- | Low -- °F
--% Chance of Precip.
Yesterday
High -- | Low -- °F
Precip. -- in
Pressure 30.32 in
Visibility 4.0 miles
Clouds Scattered Clouds 9500 ft
Windchill 20 °F
Dew Point 20 °F
Humidity 98%
Rainfall 0.00 in
Snow Depth Not available.
6:58 AM 5:17 PM
Waning Crescent, 6% visible
METAR KTIP 060815Z AUTO 00000KT 4SM BR SCT095 M04/M05 A3032 RMK AO2 T10401048
Pressure 30.32 in
Visibility 4.0 miles
Clouds Scattered Clouds 9500 ft
Windchill 20 °F
Dew Point 20 °F
Humidity 98%
Rainfall 0.00 in
Snow Depth Not available.
6:58 AM 5:17 PM
Waning Crescent, 6% visible
METAR KTIP 060815Z AUTO 00000KT 4SM BR SCT095 M04/M05 A3032 RMK AO2 T10401048

10-Day Weather Forecast

Almanac

Astronomy

Feb. 06, 2016 Rise Set
Actual Time
Civil Twilight
Nautical Twilight
Astronomical Twilight
Moon
Length of Visible Light
Length of Day
Tomorrow will be .
, % of the Moon is Illuminated

Today's Extremes

State Highs State Lows

Community

WunderPhotos

Upload Photos

1,890,933 photos uploaded!

WunderBlog® & News

Nearby

Air Quality

  Air Quality AQ Index Pollutant
Not available.

Snow Depth

Station Depth Elevation

Earthquake Activity

City Distance Mag. Time & Date
Minimum magnitude displayed is 2.5.

Coastal Water Temperatures

Place Temperature

Stations

Nearby Weather Stations

Station Location Temp. Windchill Dew Point Humidity Wind Precip. Elev Updated Type
                   

Watches & Warnings

There are currently no watches in effect.